createdAt,value
2022-11-05T00:00:04.023Z,6.15
2022-11-05T00:02:59.652Z,6.57
2022-11-05T00:05:46.583Z,6.75
2022-11-05T00:08:39.683Z,2.90
2022-11-05T00:11:18.063Z,3.45
2022-11-05T00:14:05.299Z,3.10
2022-11-05T00:16:47.012Z,4.32
2022-11-05T00:19:18.252Z,2.83
2022-11-05T00:22:05.524Z,2.70
2022-11-05T00:24:54.451Z,3.65
2022-11-05T00:27:26.037Z,2.03
2022-11-05T00:29:53.957Z,1.88
2022-11-05T00:32:23.896Z,2.47
2022-11-05T00:34:52.885Z,2.28
2022-11-05T00:37:20.735Z,2.20
2022-11-05T00:39:51.013Z,2.20
2022-11-05T00:42:37.572Z,2.20
2022-11-05T00:45:07.008Z,1.70
2022-11-05T00:47:57.367Z,2.00
2022-11-05T00:50:25.572Z,1.60
2022-11-05T00:52:59.780Z,1.52
2022-11-05T00:55:33.641Z,1.00
2022-11-05T00:58:03.117Z,2.08
2022-11-05T01:00:32.578Z,2.22
2022-11-05T01:03:03.103Z,1.70
2022-11-05T01:05:31.661Z,2.20
2022-11-05T01:07:59.773Z,1.70
2022-11-05T01:10:28.007Z,1.48
2022-11-05T01:12:58.871Z,1.02
2022-11-05T01:15:27.789Z,0.60
2022-11-05T01:17:55.722Z,1.13
2022-11-05T01:20:23.879Z,1.58
2022-11-05T01:22:54.223Z,1.33
2022-11-05T01:25:22.088Z,1.40
2022-11-05T01:27:55.804Z,1.50
2022-11-05T01:30:24.163Z,1.48
2022-11-05T01:32:52.355Z,1.83
2022-11-05T01:35:23.175Z,1.50
2022-11-05T01:37:51.159Z,1.60
2022-11-05T01:40:24.180Z,1.60
2022-11-05T01:42:52.225Z,1.90
2022-11-05T01:45:27.877Z,1.52
2022-11-05T01:48:23.220Z,2.05
2022-11-05T01:50:58.545Z,1.55
2022-11-05T01:53:33.828Z,1.58
2022-11-05T01:56:19.077Z,1.50
2022-11-05T01:58:51.439Z,1.85
2022-11-05T02:01:20.007Z,1.63
2022-11-05T02:03:49.628Z,1.70
2022-11-05T02:06:18.217Z,1.60
2022-11-05T02:08:59.091Z,1.30
2022-11-05T02:11:27.902Z,1.23
2022-11-05T02:13:58.851Z,1.80
2022-11-05T02:16:44.164Z,1.35
2022-11-05T02:19:40.136Z,1.20
2022-11-05T02:22:26.401Z,1.25
2022-11-05T02:25:25.285Z,1.50
2022-11-05T02:28:07.271Z,1.20
2022-11-05T02:30:55.312Z,1.15
2022-11-05T02:34:04.700Z,1.40
2022-11-05T02:36:48.834Z,1.40
2022-11-05T02:39:27.736Z,1.48
2022-11-05T02:42:11.969Z,1.60
2022-11-05T02:45:18.458Z,1.92
2022-11-05T02:48:32.892Z,2.00
2022-11-05T02:51:09.553Z,2.42
2022-11-05T02:53:54.273Z,2.20
2022-11-05T02:56:26.658Z,2.15
2022-11-05T02:58:54.593Z,2.17
2022-11-05T03:01:22.492Z,2.42
2022-11-05T03:04:00.920Z,2.08
2022-11-05T03:06:35.833Z,2.10
2022-11-05T03:09:37.539Z,1.73
2022-11-05T03:12:29.453Z,2.13
2022-11-05T03:15:16.696Z,1.92
2022-11-05T03:18:11.222Z,1.20
2022-11-05T03:20:48.083Z,1.50
2022-11-05T03:23:29.222Z,1.23
2022-11-05T03:26:07.941Z,0.82
2022-11-05T03:28:37.856Z,1.70
2022-11-05T03:31:08.773Z,1.17
2022-11-05T03:33:38.120Z,1.60
2022-11-05T03:36:16.754Z,1.50
2022-11-05T03:38:47.896Z,1.60
2022-11-05T03:41:16.589Z,1.52
2022-11-05T03:43:50.711Z,0.95
2022-11-05T03:46:22.866Z,1.05
2022-11-05T03:48:53.118Z,1.40
2022-11-05T03:51:40.048Z,1.20
2022-11-05T03:54:08.419Z,1.10
2022-11-05T03:56:38.743Z,1.60
2022-11-05T03:59:08.078Z,1.65
2022-11-05T04:01:37.785Z,1.25
2022-11-05T04:04:07.502Z,1.27
2022-11-05T04:06:54.212Z,1.15
2022-11-05T04:09:45.831Z,1.17
2022-11-05T04:12:32.194Z,0.40
2022-11-05T04:15:00.209Z,0.80
2022-11-05T04:17:28.435Z,0.93
2022-11-05T04:20:15.273Z,0.90
2022-11-05T04:23:01.540Z,1.10
2022-11-05T04:25:30.565Z,1.00
2022-11-05T04:28:01.676Z,1.42
2022-11-05T04:30:29.642Z,1.40
2022-11-05T04:33:11.862Z,1.38
2022-11-05T04:35:48.270Z,1.27
2022-11-05T04:38:19.546Z,1.40
2022-11-05T04:40:48.587Z,1.23
2022-11-05T04:43:18.981Z,1.20
2022-11-05T04:45:47.620Z,1.50
2022-11-05T04:48:15.738Z,1.33
2022-11-05T04:50:43.716Z,1.60
2022-11-05T04:53:14.498Z,1.63
2022-11-05T04:55:43.340Z,1.17
2022-11-05T04:58:11.360Z,1.83
2022-11-05T05:00:39.531Z,1.52
2022-11-05T05:03:07.697Z,1.30
2022-11-05T05:05:38.316Z,1.77
2022-11-05T05:08:08.327Z,1.20
2022-11-05T05:10:41.859Z,1.80
2022-11-05T05:13:14.299Z,1.38
2022-11-05T05:15:42.148Z,1.30
2022-11-05T05:18:12.842Z,1.00
2022-11-05T05:20:59.572Z,1.02
2022-11-05T05:23:32.083Z,1.10
2022-11-05T05:26:03.407Z,0.98
2022-11-05T05:28:35.254Z,0.80
2022-11-05T05:31:03.767Z,1.10
2022-11-05T05:33:34.187Z,0.90
2022-11-05T05:36:10.950Z,0.80
2022-11-05T05:38:41.957Z,0.80
2022-11-05T05:41:10.327Z,0.95
2022-11-05T05:43:40.421Z,1.15
2022-11-05T05:46:11.471Z,0.60
2022-11-05T05:48:39.884Z,0.80
2022-11-05T05:51:20.871Z,1.05
2022-11-05T05:54:04.654Z,0.93
2022-11-05T05:56:36.096Z,1.20
2022-11-05T05:59:06.985Z,1.10
2022-11-05T06:01:40.808Z,1.13
2022-11-05T06:04:10.785Z,1.30
2022-11-05T06:06:38.867Z,1.00
2022-11-05T06:09:06.862Z,1.20
2022-11-05T06:11:35.490Z,1.00
2022-11-05T06:14:03.749Z,1.05
2022-11-05T06:16:36.691Z,1.08
2022-11-05T06:19:05.615Z,0.80
2022-11-05T06:21:33.622Z,0.90
2022-11-05T06:24:04.620Z,1.00
2022-11-05T06:26:35.891Z,1.20
2022-11-05T06:29:06.325Z,1.20
2022-11-05T06:31:34.267Z,1.17
2022-11-05T06:34:05.015Z,0.80
2022-11-05T06:36:33.784Z,0.90
2022-11-05T06:39:03.551Z,0.80
2022-11-05T06:41:38.103Z,0.95
2022-11-05T06:44:19.362Z,1.15
2022-11-05T06:46:48.819Z,1.10
2022-11-05T06:49:18.244Z,0.80
2022-11-05T06:51:49.046Z,0.90
2022-11-05T06:54:17.453Z,0.90
2022-11-05T06:56:46.222Z,0.47
2022-11-05T06:59:14.588Z,0.60
2022-11-05T07:01:43.821Z,1.00
2022-11-05T07:04:27.504Z,0.80
2022-11-05T07:06:55.605Z,0.90
2022-11-05T07:09:24.043Z,0.95
2022-11-05T07:11:56.035Z,1.30
2022-11-05T07:14:30.455Z,1.15
2022-11-05T07:16:58.603Z,1.35
2022-11-05T07:19:26.816Z,1.48
2022-11-05T07:21:57.371Z,1.30
2022-11-05T07:24:28.996Z,1.23
2022-11-05T07:27:00.431Z,1.20
2022-11-05T07:29:28.513Z,1.10
2022-11-05T07:32:09.525Z,1.30
2022-11-05T07:34:40.386Z,1.40
2022-11-05T07:37:10.045Z,1.40
2022-11-05T07:39:38.125Z,1.80
2022-11-05T07:42:06.406Z,1.90
2022-11-05T07:47:15.997Z,1.80
2022-11-05T07:49:44.787Z,1.85
2022-11-05T07:52:14.630Z,2.20
2022-11-05T07:54:52.309Z,1.90
2022-11-05T07:57:21.830Z,2.75
2022-11-05T07:59:51.548Z,1.75
2022-11-05T08:02:20.557Z,1.40
2022-11-05T08:04:55.663Z,2.35
2022-11-05T08:07:29.674Z,1.50
2022-11-05T08:09:58.025Z,1.85
2022-11-05T08:12:26.543Z,1.52
2022-11-05T08:14:54.921Z,2.00
2022-11-05T08:17:25.212Z,1.65
2022-11-05T08:19:53.589Z,1.48
2022-11-05T08:22:25.546Z,1.60
2022-11-05T08:25:00.350Z,1.25
2022-11-05T08:27:38.232Z,1.00
2022-11-05T08:32:36.369Z,1.60
2022-11-05T08:35:05.206Z,1.50
2022-11-05T08:37:38.210Z,1.48
2022-11-05T08:40:11.605Z,1.90
2022-11-05T08:42:49.914Z,1.60
2022-11-05T08:45:18.219Z,1.85
2022-11-05T08:47:49.776Z,1.80
2022-11-05T08:50:20.109Z,1.83
2022-11-05T08:52:48.211Z,1.92
2022-11-05T08:55:19.353Z,1.90
2022-11-05T08:57:47.576Z,1.92
2022-11-05T09:00:28.025Z,1.85
2022-11-05T09:02:59.983Z,1.67
2022-11-05T09:05:31.181Z,2.05
2022-11-05T09:08:01.846Z,2.00
2022-11-05T09:10:30.684Z,2.22
2022-11-05T09:13:09.658Z,1.77
2022-11-05T09:15:45.681Z,2.13
2022-11-05T09:18:14.945Z,2.22
2022-11-05T09:20:43.832Z,2.38
2022-11-05T09:23:16.129Z,1.60
2022-11-05T09:25:45.907Z,2.00
2022-11-05T09:28:24.860Z,1.80
2022-11-05T09:30:56.168Z,1.90
2022-11-05T09:33:29.907Z,1.65
2022-11-05T09:36:03.667Z,1.90
2022-11-05T09:38:37.475Z,2.00
2022-11-05T09:41:19.797Z,2.10
2022-11-05T09:43:59.818Z,2.20
2022-11-05T09:46:36.029Z,2.25
2022-11-05T09:49:08.905Z,2.40
2022-11-05T09:51:41.988Z,2.50
2022-11-05T09:54:16.137Z,2.38
2022-11-05T09:56:47.411Z,2.15
2022-11-05T09:59:20.101Z,2.40
2022-11-05T10:01:50.869Z,2.40
2022-11-05T10:04:26.310Z,1.95
2022-11-05T10:07:06.118Z,2.28
2022-11-05T10:09:45.503Z,2.40
2022-11-05T10:12:37.017Z,2.40
2022-11-05T10:15:15.727Z,2.55
2022-11-05T10:17:49.162Z,2.97
2022-11-05T10:20:46.700Z,3.13
2022-11-05T10:23:26.929Z,3.17
2022-11-05T10:26:08.041Z,4.22
2022-11-05T10:28:41.623Z,3.03
2022-11-05T10:31:17.382Z,2.72
2022-11-05T10:33:55.025Z,3.03
2022-11-05T10:36:28.738Z,3.13
2022-11-05T10:39:14.929Z,2.97
2022-11-05T10:42:05.455Z,3.05
2022-11-05T10:45:00.486Z,2.85
2022-11-05T10:47:52.316Z,2.70
2022-11-05T10:50:28.027Z,2.72
2022-11-05T10:53:19.379Z,3.45
2022-11-05T10:55:51.899Z,2.80
2022-11-05T10:58:41.736Z,2.85
2022-11-05T11:01:15.128Z,2.90
2022-11-05T11:03:51.161Z,3.08
2022-11-05T11:06:29.296Z,2.80
2022-11-05T11:09:04.554Z,3.10
2022-11-05T11:11:38.525Z,3.28
2022-11-05T11:14:15.467Z,2.80
2022-11-05T11:17:02.441Z,3.80
2022-11-05T11:19:40.746Z,4.60
2022-11-05T11:22:16.486Z,3.53
2022-11-05T11:24:58.426Z,2.83
2022-11-05T11:27:59.267Z,3.25
2022-11-05T11:30:39.153Z,4.07
2022-11-05T11:33:12.637Z,3.60
2022-11-05T11:35:50.447Z,3.13
2022-11-05T11:38:25.817Z,2.88
2022-11-05T11:41:34.096Z,2.70
2022-11-05T11:44:15.571Z,2.97
2022-11-05T11:46:47.572Z,3.30
2022-11-05T11:49:46.733Z,3.05
2022-11-05T11:52:36.889Z,3.25
2022-11-05T11:55:23.320Z,3.13
2022-11-05T11:58:07.508Z,3.17
2022-11-05T12:00:42.867Z,4.07
2022-11-05T12:03:25.470Z,3.80
2022-11-05T12:06:17.219Z,4.03
2022-11-05T12:09:15.000Z,3.72
2022-11-05T12:12:25.876Z,4.10
2022-11-05T12:15:07.386Z,4.68
2022-11-05T12:18:05.611Z,3.83
2022-11-05T12:21:04.173Z,4.97
2022-11-05T12:24:09.313Z,4.50
2022-11-05T12:26:58.819Z,4.20
2022-11-05T12:29:54.552Z,4.30
2022-11-05T12:32:37.055Z,4.32
2022-11-05T12:35:27.272Z,4.88
2022-11-05T12:37:59.248Z,5.82
2022-11-05T12:41:08.477Z,5.68
2022-11-05T12:44:01.195Z,4.93
2022-11-05T12:47:32.749Z,4.78
2022-11-05T12:50:15.384Z,7.13
2022-11-05T12:53:05.642Z,5.35
2022-11-05T12:56:01.065Z,5.15
2022-11-05T12:58:55.211Z,6.03
2022-11-05T13:01:38.754Z,5.38
2022-11-05T13:04:17.616Z,5.47
2022-11-05T13:06:51.667Z,5.07
2022-11-05T13:09:34.582Z,4.10
2022-11-05T13:12:14.379Z,5.28
2022-11-05T13:14:58.280Z,6.70
2022-11-05T13:17:55.277Z,5.07
2022-11-05T13:20:28.613Z,5.03
2022-11-05T13:25:40.145Z,7.95
2022-11-05T13:28:47.174Z,5.18
2022-11-05T13:31:26.492Z,4.63
2022-11-05T13:33:55.270Z,4.68
2022-11-05T13:36:54.112Z,4.90
2022-11-05T13:43:02.529Z,4.53
2022-11-05T13:46:20.192Z,5.47
2022-11-05T13:52:50.963Z,4.15
2022-11-05T13:55:43.337Z,4.25
2022-11-05T13:58:52.220Z,4.18
2022-11-05T14:01:32.543Z,3.17
2022-11-05T14:04:01.374Z,3.63
2022-11-05T14:06:32.704Z,4.13
2022-11-05T14:09:11.272Z,4.50
2022-11-05T14:11:45.015Z,6.68
2022-11-05T14:14:27.600Z,4.63
2022-11-05T14:17:09.390Z,4.15
2022-11-05T14:20:37.325Z,4.72
2022-11-05T14:23:25.660Z,5.90
2022-11-05T14:26:12.851Z,4.00
2022-11-05T14:28:46.968Z,4.55
2022-11-05T14:32:02.653Z,4.88
2022-11-05T14:34:42.889Z,4.57
2022-11-05T14:37:35.652Z,4.43
2022-11-05T14:40:46.193Z,4.47
2022-11-05T14:43:31.094Z,5.57
2022-11-05T14:46:06.443Z,6.57
2022-11-05T14:48:55.928Z,7.40
2022-11-05T14:51:53.290Z,7.75
2022-11-05T14:54:28.365Z,7.43
2022-11-05T14:57:04.184Z,7.65
2022-11-05T14:59:35.127Z,8.02
2022-11-05T15:02:12.984Z,7.45
2022-11-05T15:04:48.404Z,8.88
2022-11-05T15:07:39.267Z,20.10
2022-11-05T15:10:13.864Z,15.50
2022-11-05T15:12:50.692Z,16.60
2022-11-05T15:15:49.130Z,9.60
2022-11-05T15:18:24.911Z,12.40
2022-11-05T15:21:03.370Z,13.02
2022-11-05T15:23:39.631Z,11.32
2022-11-05T15:26:37.630Z,11.20
2022-11-05T15:29:20.754Z,17.67
2022-11-05T15:31:51.355Z,15.68
2022-11-05T15:34:31.688Z,16.67
2022-11-05T15:37:26.635Z,11.10
2022-11-05T15:39:58.589Z,11.18
2022-11-05T15:42:27.764Z,9.23
2022-11-05T15:44:59.815Z,8.93
2022-11-05T15:47:35.490Z,9.52
2022-11-05T15:50:14.795Z,9.90
2022-11-05T15:53:04.842Z,9.80
2022-11-05T15:55:55.167Z,10.88
2022-11-05T15:58:35.160Z,8.18
2022-11-05T16:01:03.501Z,6.72
2022-11-05T16:03:35.983Z,5.82
2022-11-05T16:06:08.761Z,15.43
2022-11-05T16:08:38.432Z,14.75
2022-11-05T16:11:07.134Z,15.05
2022-11-05T16:13:36.279Z,12.40
2022-11-05T16:16:34.194Z,13.43
2022-11-05T16:19:02.407Z,10.43
2022-11-05T16:21:31.716Z,8.93
2022-11-05T16:24:00.858Z,8.27
2022-11-05T16:27:00.482Z,8.05
2022-11-05T16:29:30.316Z,8.57
2022-11-05T16:32:03.474Z,13.55
2022-11-05T16:37:36.217Z,13.00
2022-11-05T16:40:13.437Z,12.07
2022-11-05T16:42:46.172Z,11.82
2022-11-05T16:45:16.466Z,9.88
2022-11-05T16:47:45.577Z,10.05
2022-11-05T16:50:18.773Z,9.15
2022-11-05T16:52:47.721Z,8.43
2022-11-05T16:55:21.353Z,9.75
2022-11-05T16:57:55.736Z,8.25
2022-11-05T17:00:25.189Z,7.35
2022-11-05T17:02:58.172Z,7.82
2022-11-05T17:05:29.621Z,6.93
2022-11-05T17:07:59.698Z,7.10
2022-11-05T17:10:28.643Z,7.15
2022-11-05T17:12:57.076Z,6.95
2022-11-05T17:15:35.671Z,6.40
2022-11-05T17:18:18.987Z,7.63
2022-11-05T17:20:56.773Z,7.05
2022-11-05T17:23:32.639Z,6.93
2022-11-05T17:26:08.625Z,7.93
2022-11-05T17:28:38.077Z,6.15
2022-11-05T17:31:09.572Z,7.18
2022-11-05T17:33:44.934Z,7.03
2022-11-05T17:36:15.361Z,7.82
2022-11-05T17:38:48.275Z,7.30
2022-11-05T17:41:28.459Z,6.77
2022-11-05T17:44:00.947Z,6.88
2022-11-05T17:46:34.940Z,76.13
2022-11-05T17:49:19.677Z,6.15
2022-11-05T17:52:13.549Z,6.03
2022-11-05T17:54:58.265Z,6.15
2022-11-05T17:57:31.554Z,5.93
2022-11-05T18:00:07.289Z,6.65
2022-11-05T18:02:42.405Z,6.85
2022-11-05T18:05:24.553Z,7.13
2022-11-05T18:08:05.021Z,7.28
2022-11-05T18:10:33.872Z,6.32
2022-11-05T18:13:06.842Z,6.75
2022-11-05T18:15:44.073Z,7.10
2022-11-05T18:18:21.176Z,6.43
2022-11-05T18:20:52.619Z,6.07
2022-11-05T18:23:27.926Z,5.57
2022-11-05T18:25:56.230Z,21.77
2022-11-05T18:31:25.029Z,6.35
2022-11-05T18:34:02.483Z,4.85
2022-11-05T18:36:56.539Z,6.30
2022-11-05T18:39:25.501Z,6.30
2022-11-05T18:41:53.806Z,5.65
2022-11-05T18:44:23.447Z,6.45
2022-11-05T18:46:58.392Z,5.13
2022-11-05T18:49:34.122Z,6.13
2022-11-05T18:52:08.888Z,10.35
2022-11-05T18:54:37.140Z,5.85
2022-11-05T18:57:06.108Z,5.90
2022-11-05T18:59:38.208Z,5.35
2022-11-05T19:02:11.868Z,6.50
2022-11-05T19:05:13.938Z,6.57
2022-11-05T19:07:38.610Z,6.07
2022-11-05T19:10:07.794Z,5.95
2022-11-05T19:12:38.728Z,6.82
2022-11-05T19:15:17.006Z,5.90
2022-11-05T19:17:49.070Z,6.93
2022-11-05T19:20:17.593Z,7.05
2022-11-05T19:22:46.018Z,6.80
2022-11-05T19:25:19.292Z,6.15
2022-11-05T19:30:23.792Z,7.28
2022-11-05T19:32:54.024Z,6.90
2022-11-05T19:35:24.351Z,7.35
2022-11-05T19:37:56.359Z,6.82
2022-11-05T19:40:27.972Z,7.18
2022-11-05T19:42:56.516Z,7.35
2022-11-05T19:45:44.252Z,8.15
2022-11-05T19:48:21.923Z,6.60
2022-11-05T19:50:59.235Z,6.28
2022-11-05T19:53:30.290Z,6.32
2022-11-05T19:55:59.931Z,7.50
2022-11-05T19:58:30.683Z,6.53
2022-11-05T20:01:00.070Z,7.15
2022-11-05T20:03:30.973Z,6.45
2022-11-05T20:06:07.638Z,7.45
2022-11-05T20:08:53.425Z,7.30
2022-11-05T20:11:41.204Z,6.70
2022-11-05T20:14:12.713Z,7.30
2022-11-05T20:16:45.484Z,7.45
2022-11-05T20:19:19.695Z,8.38
2022-11-05T20:21:48.632Z,7.05
2022-11-05T20:24:24.052Z,6.63
2022-11-05T20:26:56.578Z,7.32
2022-11-05T20:29:35.907Z,7.70
2022-11-05T20:32:06.287Z,7.05
2022-11-05T20:34:56.678Z,7.05
2022-11-05T20:37:27.284Z,7.28
2022-11-05T20:40:01.173Z,7.57
2022-11-05T20:42:29.423Z,6.53
2022-11-05T20:45:05.138Z,7.85
2022-11-05T20:47:33.465Z,8.38
2022-11-05T20:50:04.716Z,7.22
2022-11-05T20:52:34.012Z,6.97
2022-11-05T20:55:09.227Z,6.43
2022-11-05T21:08:04.153Z,9.25
2022-11-05T21:10:32.403Z,8.95
2022-11-05T21:13:04.900Z,8.70
2022-11-05T21:15:38.530Z,10.17
2022-11-05T21:18:11.908Z,9.20
2022-11-05T21:20:48.431Z,9.00
2022-11-05T21:23:30.506Z,9.48
2022-11-05T21:26:09.806Z,9.60
2022-11-05T21:28:48.848Z,9.90
2022-11-05T21:31:26.247Z,10.70
2022-11-05T21:34:04.704Z,9.65
2022-11-05T21:36:40.398Z,10.52
2022-11-05T21:39:14.408Z,11.18
2022-11-05T21:41:47.677Z,9.75
2022-11-05T21:44:27.362Z,9.50
2022-11-05T21:46:58.649Z,9.73
2022-11-05T21:49:31.178Z,10.45
2022-11-05T21:52:20.250Z,10.32
2022-11-05T21:55:07.098Z,9.38
2022-11-05T21:57:54.036Z,9.95
2022-11-05T22:00:28.400Z,11.10
2022-11-05T22:03:16.134Z,10.88
2022-11-05T22:06:06.779Z,10.80
2022-11-05T22:08:42.221Z,10.98
2022-11-05T22:11:10.612Z,11.07
2022-11-05T22:13:38.720Z,18.55
2022-11-05T22:19:04.642Z,11.90
2022-11-05T22:21:32.553Z,11.05
2022-11-05T22:24:00.504Z,13.05
2022-11-05T22:26:28.586Z,12.07
2022-11-05T22:28:56.708Z,11.68
2022-11-05T22:31:24.587Z,12.13
2022-11-05T22:33:52.900Z,12.35
2022-11-05T22:36:21.812Z,11.25
2022-11-05T22:38:49.835Z,13.07
2022-11-05T22:41:22.074Z,13.23
2022-11-05T22:43:50.077Z,13.27
2022-11-05T22:46:23.367Z,13.07
2022-11-05T22:48:51.729Z,13.05
2022-11-05T22:51:24.572Z,14.15
2022-11-05T22:53:52.547Z,12.50
2022-11-05T22:56:22.698Z,12.88
2022-11-05T22:58:51.087Z,13.43
2022-11-05T23:01:20.469Z,13.77
2022-11-05T23:03:52.683Z,14.85
2022-11-05T23:06:44.649Z,13.52
2022-11-05T23:09:42.646Z,13.60
2022-11-05T23:12:22.798Z,13.82
2022-11-05T23:14:53.927Z,12.85
2022-11-05T23:17:40.139Z,13.63
2022-11-05T23:20:30.521Z,13.45
2022-11-05T23:23:17.292Z,12.73
2022-11-05T23:25:45.217Z,13.32
2022-11-05T23:28:13.954Z,13.27
2022-11-05T23:31:05.375Z,11.85
2022-11-05T23:33:34.712Z,13.02
2022-11-05T23:36:21.466Z,12.88
2022-11-05T23:38:49.361Z,13.35
2022-11-05T23:41:35.420Z,11.88
2022-11-05T23:44:21.657Z,13.50
2022-11-05T23:47:07.956Z,12.40
2022-11-05T23:49:35.885Z,12.73
2022-11-05T23:52:03.799Z,14.02
2022-11-05T23:54:31.631Z,11.77
2022-11-05T23:56:59.463Z,12.25
2022-11-05T23:59:27.700Z,12.82
